Main page
METAR-TAF:

METAR-TAF

Airports :

Nairobi, Kenya

Jomo Kenyatta International Airport

latitude: 01-19S, longitude: 036-55E, elevation: 1624 m

Current weather observation

The report was made 59 minutes ago, at 11:00 UTC
Wind 7 kt from the South/Southeast
Temperature 20°C
Humidity 64%
Pressure 1024 hPa
Visibility 10 km or more
Scattered clouds at a height of 2500 ft
Broken clouds at a height of 3500 ft

METAR: HKJK 261100Z 16007KT 9999 SCT025 BKN035 20/13 Q1024

Time: 14:59 (11:59 UTC)


TAF: missing

Weather observations and forecasts of more than 4000 airports (METAR and TAF reports).

The available stations are represented by yellow and red dots on the map.

Hover mouse over dot to see the name of the station.

Then click to see weather observations and forecasts.

To change the map : click on the green buttons with a black cross to zoom in, on the green button with a dash to zoom out, or on the green arrows for adjacent maps.


METAR-TAF: